sensor_id;sensor_type;location;lat;lon;timestamp;temperature;humidity
72604;DHT22;60645;56.968;24.196;2022-10-16T00:02:28;19.60;62.40
72604;DHT22;60645;56.968;24.196;2022-10-16T00:05:04;19.60;62.20
72604;DHT22;60645;56.968;24.196;2022-10-16T00:07:52;19.60;62.10
72604;DHT22;60645;56.968;24.196;2022-10-16T00:10:48;19.60;62.40
72604;DHT22;60645;56.968;24.196;2022-10-16T00:13:17;19.50;62.30
72604;DHT22;60645;56.968;24.196;2022-10-16T00:15:57;19.60;62.10
72604;DHT22;60645;56.968;24.196;2022-10-16T00:18:32;19.60;62.20
72604;DHT22;60645;56.968;24.196;2022-10-16T00:21:14;19.60;62.40
72604;DHT22;60645;56.968;24.196;2022-10-16T00:23:53;19.60;62.20
72604;DHT22;60645;56.968;24.196;2022-10-16T00:26:33;19.70;62.20
72604;DHT22;60645;56.968;24.196;2022-10-16T00:29:13;19.70;62.40
72604;DHT22;60645;56.968;24.196;2022-10-16T00:31:52;19.60;62.10
72604;DHT22;60645;56.968;24.196;2022-10-16T00:34:29;19.60;62.30
72604;DHT22;60645;56.968;24.196;2022-10-16T00:37:14;19.60;62.30
72604;DHT22;60645;56.968;24.196;2022-10-16T00:39:50;19.60;62.30
72604;DHT22;60645;56.968;24.196;2022-10-16T00:42:27;19.60;62.40
72604;DHT22;60645;56.968;24.196;2022-10-16T00:45:03;19.60;62.30
72604;DHT22;60645;56.968;24.196;2022-10-16T00:50:21;19.60;62.10
72604;DHT22;60645;56.968;24.196;2022-10-16T00:52:53;19.60;62.10
72604;DHT22;60645;56.968;24.196;2022-10-16T00:55:31;19.70;62.30
72604;DHT22;60645;56.968;24.196;2022-10-16T00:58:20;19.60;62.10
72604;DHT22;60645;56.968;24.196;2022-10-16T01:00:51;19.60;62.30
72604;DHT22;60645;56.968;24.196;2022-10-16T01:03:34;19.60;62.20
72604;DHT22;60645;56.968;24.196;2022-10-16T01:06:35;19.60;62.30
72604;DHT22;60645;56.968;24.196;2022-10-16T01:17:46;19.60;62.20
72604;DHT22;60645;56.968;24.196;2022-10-16T01:21:42;19.60;62.30
72604;DHT22;60645;56.968;24.196;2022-10-16T01:30:23;19.50;62.30
72604;DHT22;60645;56.968;24.196;2022-10-16T01:33:14;19.60;62.20
72604;DHT22;60645;56.968;24.196;2022-10-16T01:35:54;19.50;62.40
72604;DHT22;60645;56.968;24.196;2022-10-16T01:38:55;19.50;62.40
72604;DHT22;60645;56.968;24.196;2022-10-16T01:41:34;19.60;62.40
72604;DHT22;60645;56.968;24.196;2022-10-16T01:44:16;19.60;62.30
72604;DHT22;60645;56.968;24.196;2022-10-16T01:46:52;19.50;62.50
72604;DHT22;60645;56.968;24.196;2022-10-16T01:49:35;19.60;62.20
72604;DHT22;60645;56.968;24.196;2022-10-16T01:52:16;19.60;62.40
72604;DHT22;60645;56.968;24.196;2022-10-16T01:54:54;19.60;62.40
72604;DHT22;60645;56.968;24.196;2022-10-16T01:57:47;19.60;62.30
72604;DHT22;60645;56.968;24.196;2022-10-16T02:00:39;19.60;62.40
72604;DHT22;60645;56.968;24.196;2022-10-16T02:03:22;19.60;62.30
72604;DHT22;60645;56.968;24.196;2022-10-16T02:05:57;19.60;62.30
72604;DHT22;60645;56.968;24.196;2022-10-16T02:08:39;19.60;62.40
72604;DHT22;60645;56.968;24.196;2022-10-16T02:11:19;19.60;62.20
72604;DHT22;60645;56.968;24.196;2022-10-16T02:14:04;19.60;62.40
72604;DHT22;60645;56.968;24.196;2022-10-16T02:16:48;19.50;62.30
72604;DHT22;60645;56.968;24.196;2022-10-16T02:19:24;19.60;62.30
72604;DHT22;60645;56.968;24.196;2022-10-16T02:22:05;19.60;62.30
72604;DHT22;60645;56.968;24.196;2022-10-16T02:27:46;19.60;62.10
72604;DHT22;60645;56.968;24.196;2022-10-16T02:30:43;19.60;62.20
72604;DHT22;60645;56.968;24.196;2022-10-16T02:33:17;19.60;62.20
72604;DHT22;60645;56.968;24.196;2022-10-16T02:35:53;19.60;62.30
72604;DHT22;60645;56.968;24.196;2022-10-16T02:38:29;19.60;62.60
72604;DHT22;60645;56.968;24.196;2022-10-16T02:41:21;19.60;62.40
72604;DHT22;60645;56.968;24.196;2022-10-16T02:44:02;19.60;62.30
72604;DHT22;60645;56.968;24.196;2022-10-16T02:46:42;19.50;62.40
72604;DHT22;60645;56.968;24.196;2022-10-16T02:49:17;19.60;62.10
72604;DHT22;60645;56.968;24.196;2022-10-16T02:52:12;19.60;62.40
72604;DHT22;60645;56.968;24.196;2022-10-16T02:55:02;19.60;62.30
72604;DHT22;60645;56.968;24.196;2022-10-16T02:57:36;19.60;62.40
72604;DHT22;60645;56.968;24.196;2022-10-16T03:00:13;19.50;62.30
72604;DHT22;60645;56.968;24.196;2022-10-16T03:02:44;19.50;62.30
72604;DHT22;60645;56.968;24.196;2022-10-16T03:05:22;19.60;62.20
72604;DHT22;60645;56.968;24.196;2022-10-16T03:08:01;19.60;62.30
72604;DHT22;60645;56.968;24.196;2022-10-16T03:10:56;19.60;62.50
72604;DHT22;60645;56.968;24.196;2022-10-16T03:13:36;19.60;62.30
72604;DHT22;60645;56.968;24.196;2022-10-16T03:16:26;19.70;62.40
72604;DHT22;60645;56.968;24.196;2022-10-16T03:19:20;19.60;62.40
72604;DHT22;60645;56.968;24.196;2022-10-16T03:21:49;19.60;62.30
72604;DHT22;60645;56.968;24.196;2022-10-16T03:24:39;19.60;62.30
72604;DHT22;60645;56.968;24.196;2022-10-16T03:27:14;19.60;62.10
72604;DHT22;60645;56.968;24.196;2022-10-16T03:29:57;19.60;62.30
72604;DHT22;60645;56.968;24.196;2022-10-16T03:32:37;19.70;62.30
72604;DHT22;60645;56.968;24.196;2022-10-16T03:35:11;19.50;62.30
72604;DHT22;60645;56.968;24.196;2022-10-16T03:38:07;19.60;62.40
72604;DHT22;60645;56.968;24.196;2022-10-16T03:40:50;19.70;62.20
72604;DHT22;60645;56.968;24.196;2022-10-16T03:43:25;19.70;62.20
72604;DHT22;60645;56.968;24.196;2022-10-16T03:45:59;19.70;62.30
72604;DHT22;60645;56.968;24.196;2022-10-16T03:48:40;19.60;62.10
72604;DHT22;60645;56.968;24.196;2022-10-16T03:51:27;19.60;62.30
72604;DHT22;60645;56.968;24.196;2022-10-16T03:53:59;19.60;62.30
72604;DHT22;60645;56.968;24.196;2022-10-16T03:56:36;19.60;62.20
72604;DHT22;60645;56.968;24.196;2022-10-16T03:59:10;19.60;62.20
72604;DHT22;60645;56.968;24.196;2022-10-16T04:01:46;19.60;62.30
72604;DHT22;60645;56.968;24.196;2022-10-16T04:04:15;19.60;62.20
72604;DHT22;60645;56.968;24.196;2022-10-16T04:06:46;19.70;62.40
72604;DHT22;60645;56.968;24.196;2022-10-16T04:09:30;19.70;62.30
72604;DHT22;60645;56.968;24.196;2022-10-16T04:12:12;19.60;62.40
72604;DHT22;60645;56.968;24.196;2022-10-16T04:15:00;19.70;62.10
72604;DHT22;60645;56.968;24.196;2022-10-16T04:17:35;19.60;62.10
72604;DHT22;60645;56.968;24.196;2022-10-16T04:20:10;19.70;62.10
72604;DHT22;60645;56.968;24.196;2022-10-16T04:22:46;19.70;62.20
72604;DHT22;60645;56.968;24.196;2022-10-16T04:25:32;19.60;62.30
72604;DHT22;60645;56.968;24.196;2022-10-16T04:28:14;19.70;62.40
72604;DHT22;60645;56.968;24.196;2022-10-16T04:30:52;19.60;62.20
72604;DHT22;60645;56.968;24.196;2022-10-16T04:33:30;19.70;62.30
72604;DHT22;60645;56.968;24.196;2022-10-16T04:36:11;19.70;62.20
72604;DHT22;60645;56.968;24.196;2022-10-16T04:38:50;19.60;62.10
72604;DHT22;60645;56.968;24.196;2022-10-16T04:41:29;19.70;62.30
72604;DHT22;60645;56.968;24.196;2022-10-16T04:44:06;19.70;62.20
72604;DHT22;60645;56.968;24.196;2022-10-16T04:46:44;19.70;62.30
72604;DHT22;60645;56.968;24.196;2022-10-16T04:49:28;19.70;62.30
72604;DHT22;60645;56.968;24.196;2022-10-16T04:52:08;19.70;62.30
72604;DHT22;60645;56.968;24.196;2022-10-16T04:54:46;19.80;62.00
72604;DHT22;60645;56.968;24.196;2022-10-16T04:57:25;19.70;62.20
72604;DHT22;60645;56.968;24.196;2022-10-16T05:00:05;19.70;62.10
72604;DHT22;60645;56.968;24.196;2022-10-16T05:02:51;19.70;62.30
72604;DHT22;60645;56.968;24.196;2022-10-16T05:05:44;19.70;62.10
72604;DHT22;60645;56.968;24.196;2022-10-16T05:08:23;19.70;62.20
72604;DHT22;60645;56.968;24.196;2022-10-16T05:11:18;19.70;62.10
72604;DHT22;60645;56.968;24.196;2022-10-16T05:13:55;19.60;62.10
72604;DHT22;60645;56.968;24.196;2022-10-16T05:16:37;19.70;62.00
72604;DHT22;60645;56.968;24.196;2022-10-16T05:19:19;19.70;62.10
72604;DHT22;60645;56.968;24.196;2022-10-16T05:22:02;19.70;62.10
72604;DHT22;60645;56.968;24.196;2022-10-16T05:24:30;19.70;62.20
72604;DHT22;60645;56.968;24.196;2022-10-16T05:27:10;19.80;62.10
72604;DHT22;60645;56.968;24.196;2022-10-16T05:29:49;19.70;62.20
72604;DHT22;60645;56.968;24.196;2022-10-16T05:32:23;19.70;62.10
72604;DHT22;60645;56.968;24.196;2022-10-16T05:34:58;19.70;62.00
72604;DHT22;60645;56.968;24.196;2022-10-16T05:37:38;19.70;62.00
72604;DHT22;60645;56.968;24.196;2022-10-16T05:40:18;19.70;62.20
72604;DHT22;60645;56.968;24.196;2022-10-16T05:43:06;19.80;62.10
72604;DHT22;60645;56.968;24.196;2022-10-16T05:45:38;19.70;61.80
72604;DHT22;60645;56.968;24.196;2022-10-16T05:48:17;19.70;62.00
72604;DHT22;60645;56.968;24.196;2022-10-16T05:51:06;19.70;61.90
72604;DHT22;60645;56.968;24.196;2022-10-16T05:53:40;19.70;61.90
72604;DHT22;60645;56.968;24.196;2022-10-16T05:56:22;19.80;61.90
72604;DHT22;60645;56.968;24.196;2022-10-16T05:58:57;19.80;62.00
72604;DHT22;60645;56.968;24.196;2022-10-16T06:01:38;19.80;61.90
72604;DHT22;60645;56.968;24.196;2022-10-16T06:04:15;19.80;61.90
72604;DHT22;60645;56.968;24.196;2022-10-16T06:07:06;19.80;62.00
72604;DHT22;60645;56.968;24.196;2022-10-16T06:09:51;19.80;62.00
72604;DHT22;60645;56.968;24.196;2022-10-16T06:12:30;19.80;61.90
72604;DHT22;60645;56.968;24.196;2022-10-16T06:15:06;19.80;61.90
72604;DHT22;60645;56.968;24.196;2022-10-16T06:17:34;19.90;61.70
72604;DHT22;60645;56.968;24.196;2022-10-16T06:20:25;19.90;61.90
72604;DHT22;60645;56.968;24.196;2022-10-16T06:23:06;19.80;61.70
72604;DHT22;60645;56.968;24.196;2022-10-16T06:25:53;19.90;61.80
72604;DHT22;60645;56.968;24.196;2022-10-16T06:28:29;19.90;61.60
72604;DHT22;60645;56.968;24.196;2022-10-16T06:31:05;19.90;61.70
72604;DHT22;60645;56.968;24.196;2022-10-16T06:33:42;20.00;61.60
72604;DHT22;60645;56.968;24.196;2022-10-16T06:36:20;20.00;61.50
72604;DHT22;60645;56.968;24.196;2022-10-16T06:39:02;20.00;61.50
72604;DHT22;60645;56.968;24.196;2022-10-16T06:41:40;20.00;61.50
72604;DHT22;60645;56.968;24.196;2022-10-16T06:44:14;20.00;61.50
72604;DHT22;60645;56.968;24.196;2022-10-16T06:46:51;20.00;61.60
72604;DHT22;60645;56.968;24.196;2022-10-16T06:49:26;20.00;61.40
72604;DHT22;60645;56.968;24.196;2022-10-16T06:52:00;20.00;61.40
72604;DHT22;60645;56.968;24.196;2022-10-16T06:54:40;20.10;61.50
72604;DHT22;60645;56.968;24.196;2022-10-16T06:57:17;20.00;61.40
72604;DHT22;60645;56.968;24.196;2022-10-16T07:00:07;20.00;61.40
72604;DHT22;60645;56.968;24.196;2022-10-16T07:02:52;20.00;61.50
72604;DHT22;60645;56.968;24.196;2022-10-16T07:05:27;20.00;61.50
72604;DHT22;60645;56.968;24.196;2022-10-16T07:08:11;20.10;61.40
72604;DHT22;60645;56.968;24.196;2022-10-16T07:10:47;20.00;61.50
72604;DHT22;60645;56.968;24.196;2022-10-16T07:13:23;20.00;61.40
72604;DHT22;60645;56.968;24.196;2022-10-16T07:16:08;20.00;61.40
72604;DHT22;60645;56.968;24.196;2022-10-16T07:18:47;20.00;61.50
72604;DHT22;60645;56.968;24.196;2022-10-16T07:21:39;20.00;61.50
72604;DHT22;60645;56.968;24.196;2022-10-16T07:24:14;20.00;61.40
72604;DHT22;60645;56.968;24.196;2022-10-16T07:26:49;20.00;61.50
72604;DHT22;60645;56.968;24.196;2022-10-16T07:29:22;20.00;61.50
72604;DHT22;60645;56.968;24.196;2022-10-16T07:32:01;20.00;61.60
72604;DHT22;60645;56.968;24.196;2022-10-16T07:34:40;19.90;61.30
72604;DHT22;60645;56.968;24.196;2022-10-16T07:37:15;20.00;61.60
72604;DHT22;60645;56.968;24.196;2022-10-16T07:39:53;19.90;61.50
72604;DHT22;60645;56.968;24.196;2022-10-16T07:42:30;20.00;61.70
72604;DHT22;60645;56.968;24.196;2022-10-16T07:45:06;20.00;61.50
72604;DHT22;60645;56.968;24.196;2022-10-16T07:47:46;20.10;61.30
72604;DHT22;60645;56.968;24.196;2022-10-16T07:50:23;20.10;61.50
72604;DHT22;60645;56.968;24.196;2022-10-16T07:53:05;20.10;61.30
72604;DHT22;60645;56.968;24.196;2022-10-16T07:55:42;20.10;61.30
72604;DHT22;60645;56.968;24.196;2022-10-16T07:58:23;20.20;61.00
72604;DHT22;60645;56.968;24.196;2022-10-16T08:00:57;20.20;61.10
72604;DHT22;60645;56.968;24.196;2022-10-16T08:03:55;20.20;60.90
72604;DHT22;60645;56.968;24.196;2022-10-16T08:06:35;20.20;61.00
72604;DHT22;60645;56.968;24.196;2022-10-16T08:09:14;20.20;60.90
72604;DHT22;60645;56.968;24.196;2022-10-16T08:11:57;20.30;61.00
72604;DHT22;60645;56.968;24.196;2022-10-16T08:14:34;20.20;60.80
72604;DHT22;60645;56.968;24.196;2022-10-16T08:17:20;20.30;61.00
72604;DHT22;60645;56.968;24.196;2022-10-16T08:20:10;20.30;60.70
72604;DHT22;60645;56.968;24.196;2022-10-16T08:22:49;20.20;61.00
72604;DHT22;60645;56.968;24.196;2022-10-16T08:25:37;20.20;60.70
72604;DHT22;60645;56.968;24.196;2022-10-16T08:28:11;20.30;60.60
72604;DHT22;60645;56.968;24.196;2022-10-16T08:30:48;20.40;60.50
72604;DHT22;60645;56.968;24.196;2022-10-16T08:33:30;20.50;60.20
72604;DHT22;60645;56.968;24.196;2022-10-16T08:36:16;20.40;60.80
72604;DHT22;60645;56.968;24.196;2022-10-16T08:38:51;20.50;60.50
72604;DHT22;60645;56.968;24.196;2022-10-16T08:50:41;20.40;60.20
72604;DHT22;60645;56.968;24.196;2022-10-16T08:54:03;20.40;60.40
72604;DHT22;60645;56.968;24.196;2022-10-16T08:56:38;20.40;60.50
72604;DHT22;60645;56.968;24.196;2022-10-16T08:59:16;20.40;60.50
72604;DHT22;60645;56.968;24.196;2022-10-16T09:01:59;20.30;60.60
72604;DHT22;60645;56.968;24.196;2022-10-16T09:08:15;20.30;60.80
72604;DHT22;60645;56.968;24.196;2022-10-16T09:14:07;20.30;60.40
72604;DHT22;60645;56.968;24.196;2022-10-16T09:16:53;20.30;60.70
72604;DHT22;60645;56.968;24.196;2022-10-16T09:26:12;20.30;60.90
72604;DHT22;60645;56.968;24.196;2022-10-16T09:28:55;20.30;60.90
72604;DHT22;60645;56.968;24.196;2022-10-16T09:31:36;20.40;60.60
72604;DHT22;60645;56.968;24.196;2022-10-16T09:34:34;20.30;60.90
72604;DHT22;60645;56.968;24.196;2022-10-16T09:37:13;20.50;60.60
72604;DHT22;60645;56.968;24.196;2022-10-16T09:39:52;20.40;60.60
72604;DHT22;60645;56.968;24.196;2022-10-16T09:42:35;20.40;60.60
72604;DHT22;60645;56.968;24.196;2022-10-16T09:45:32;20.40;60.50
72604;DHT22;60645;56.968;24.196;2022-10-16T09:48:17;20.40;60.40
72604;DHT22;60645;56.968;24.196;2022-10-16T09:51:03;20.30;60.50
72604;DHT22;60645;56.968;24.196;2022-10-16T09:53:46;20.40;60.70
72604;DHT22;60645;56.968;24.196;2022-10-16T09:56:31;20.40;60.70
72604;DHT22;60645;56.968;24.196;2022-10-16T09:59:22;20.30;60.50
72604;DHT22;60645;56.968;24.196;2022-10-16T10:16:53;20.30;60.80
72604;DHT22;60645;56.968;24.196;2022-10-16T10:19:37;20.40;60.90
72604;DHT22;60645;56.968;24.196;2022-10-16T10:31:19;20.30;60.80
72604;DHT22;60645;56.968;24.196;2022-10-16T10:35:15;20.30;60.90
72604;DHT22;60645;56.968;24.196;2022-10-16T10:47:07;20.30;60.90
72604;DHT22;60645;56.968;24.196;2022-10-16T11:05:15;20.50;60.20
72604;DHT22;60645;56.968;24.196;2022-10-16T11:07:58;20.60;60.30
72604;DHT22;60645;56.968;24.196;2022-10-16T11:11:00;20.50;60.40
72604;DHT22;60645;56.968;24.196;2022-10-16T11:28:29;20.40;60.80
72604;DHT22;60645;56.968;24.196;2022-10-16T11:31:19;20.40;60.80
72604;DHT22;60645;56.968;24.196;2022-10-16T11:37:36;20.30;60.70
72604;DHT22;60645;56.968;24.196;2022-10-16T11:40:28;20.30;61.10
72604;DHT22;60645;56.968;24.196;2022-10-16T11:43:24;20.30;61.10
72604;DHT22;60645;56.968;24.196;2022-10-16T11:46:24;20.40;60.70
72604;DHT22;60645;56.968;24.196;2022-10-16T11:49:16;20.30;60.90
72604;DHT22;60645;56.968;24.196;2022-10-16T11:52:36;20.30;60.90
72604;DHT22;60645;56.968;24.196;2022-10-16T11:55:40;20.30;61.00
72604;DHT22;60645;56.968;24.196;2022-10-16T11:58:38;20.30;60.90
72604;DHT22;60645;56.968;24.196;2022-10-16T12:04:42;20.30;60.90
72604;DHT22;60645;56.968;24.196;2022-10-16T12:07:17;20.40;61.00
72604;DHT22;60645;56.968;24.196;2022-10-16T12:09:52;20.30;60.90
72604;DHT22;60645;56.968;24.196;2022-10-16T12:12:40;20.40;60.80
72604;DHT22;60645;56.968;24.196;2022-10-16T12:15:31;20.30;60.90
72604;DHT22;60645;56.968;24.196;2022-10-16T12:18:26;20.50;60.80
72604;DHT22;60645;56.968;24.196;2022-10-16T12:21:08;20.40;60.60
72604;DHT22;60645;56.968;24.196;2022-10-16T12:23:58;20.50;60.50
72604;DHT22;60645;56.968;24.196;2022-10-16T12:26:32;20.40;60.60
72604;DHT22;60645;56.968;24.196;2022-10-16T12:32:05;20.60;60.60
72604;DHT22;60645;56.968;24.196;2022-10-16T12:35:19;20.50;60.60
72604;DHT22;60645;56.968;24.196;2022-10-16T12:38:08;20.50;60.60
72604;DHT22;60645;56.968;24.196;2022-10-16T12:43:59;20.40;60.60
72604;DHT22;60645;56.968;24.196;2022-10-16T12:46:38;20.40;60.70
72604;DHT22;60645;56.968;24.196;2022-10-16T12:51:56;20.40;60.90
72604;DHT22;60645;56.968;24.196;2022-10-16T12:54:57;20.30;61.00
72604;DHT22;60645;56.968;24.196;2022-10-16T12:57:42;20.30;61.10
72604;DHT22;60645;56.968;24.196;2022-10-16T13:00:50;20.30;60.80
72604;DHT22;60645;56.968;24.196;2022-10-16T13:04:04;20.30;61.00
72604;DHT22;60645;56.968;24.196;2022-10-16T13:10:34;20.20;61.30
72604;DHT22;60645;56.968;24.196;2022-10-16T13:22:31;20.20;61.20
72604;DHT22;60645;56.968;24.196;2022-10-16T13:28:07;20.30;61.20
72604;DHT22;60645;56.968;24.196;2022-10-16T13:30:52;20.30;61.00
72604;DHT22;60645;56.968;24.196;2022-10-16T13:33:51;20.30;61.00
72604;DHT22;60645;56.968;24.196;2022-10-16T13:36:47;20.30;61.20
72604;DHT22;60645;56.968;24.196;2022-10-16T13:39:29;20.30;61.00
72604;DHT22;60645;56.968;24.196;2022-10-16T13:44:50;20.40;61.30
72604;DHT22;60645;56.968;24.196;2022-10-16T13:47:35;20.30;61.10
72604;DHT22;60645;56.968;24.196;2022-10-16T13:50:18;20.30;61.10
72604;DHT22;60645;56.968;24.196;2022-10-16T13:53:24;20.30;61.30
72604;DHT22;60645;56.968;24.196;2022-10-16T13:55:47;20.30;61.40
72604;DHT22;60645;56.968;24.196;2022-10-16T13:58:26;20.20;61.40
72604;DHT22;60645;56.968;24.196;2022-10-16T14:01:03;20.20;61.50
72604;DHT22;60645;56.968;24.196;2022-10-16T14:03:34;20.20;61.40
72604;DHT22;60645;56.968;24.196;2022-10-16T14:06:20;20.20;61.50
72604;DHT22;60645;56.968;24.196;2022-10-16T14:11:58;20.20;61.40
72604;DHT22;60645;56.968;24.196;2022-10-16T14:14:46;20.20;61.70
72604;DHT22;60645;56.968;24.196;2022-10-16T14:17:23;20.10;61.50
72604;DHT22;60645;56.968;24.196;2022-10-16T14:20:05;20.20;61.30
72604;DHT22;60645;56.968;24.196;2022-10-16T14:22:46;20.20;61.60
72604;DHT22;60645;56.968;24.196;2022-10-16T14:25:41;20.10;61.30
72604;DHT22;60645;56.968;24.196;2022-10-16T14:28:18;20.20;61.60
72604;DHT22;60645;56.968;24.196;2022-10-16T14:30:58;20.20;61.70
72604;DHT22;60645;56.968;24.196;2022-10-16T14:33:36;20.20;61.80
72604;DHT22;60645;56.968;24.196;2022-10-16T14:36:18;20.20;61.60
72604;DHT22;60645;56.968;24.196;2022-10-16T14:39:03;20.20;61.70
72604;DHT22;60645;56.968;24.196;2022-10-16T14:41:44;20.10;61.80
72604;DHT22;60645;56.968;24.196;2022-10-16T14:44:18;20.10;61.70
72604;DHT22;60645;56.968;24.196;2022-10-16T14:47:23;20.10;61.70
72604;DHT22;60645;56.968;24.196;2022-10-16T14:50:08;20.10;61.90
72604;DHT22;60645;56.968;24.196;2022-10-16T14:52:48;20.10;61.90
72604;DHT22;60645;56.968;24.196;2022-10-16T14:55:17;20.10;61.80
72604;DHT22;60645;56.968;24.196;2022-10-16T14:57:56;20.10;61.70
72604;DHT22;60645;56.968;24.196;2022-10-16T15:00:30;20.10;61.70
72604;DHT22;60645;56.968;24.196;2022-10-16T15:03:15;20.10;61.90
72604;DHT22;60645;56.968;24.196;2022-10-16T15:05:59;20.10;61.90
72604;DHT22;60645;56.968;24.196;2022-10-16T15:08:31;20.20;61.70
72604;DHT22;60645;56.968;24.196;2022-10-16T15:11:18;19.90;61.80
72604;DHT22;60645;56.968;24.196;2022-10-16T15:13:56;20.10;61.80
72604;DHT22;60645;56.968;24.196;2022-10-16T15:16:33;20.00;61.90
72604;DHT22;60645;56.968;24.196;2022-10-16T15:19:07;20.10;61.90
72604;DHT22;60645;56.968;24.196;2022-10-16T15:21:48;20.10;61.90
72604;DHT22;60645;56.968;24.196;2022-10-16T15:24:22;20.10;61.70
72604;DHT22;60645;56.968;24.196;2022-10-16T15:27:08;20.10;61.90
72604;DHT22;60645;56.968;24.196;2022-10-16T15:30:03;20.10;62.00
72604;DHT22;60645;56.968;24.196;2022-10-16T15:32:45;20.00;61.90
72604;DHT22;60645;56.968;24.196;2022-10-16T15:35:25;20.10;61.80
72604;DHT22;60645;56.968;24.196;2022-10-16T15:38:09;20.10;62.10
72604;DHT22;60645;56.968;24.196;2022-10-16T15:40:51;20.10;62.10
72604;DHT22;60645;56.968;24.196;2022-10-16T15:43:24;20.10;61.90
72604;DHT22;60645;56.968;24.196;2022-10-16T15:46:24;20.10;62.10
72604;DHT22;60645;56.968;24.196;2022-10-16T15:49:00;20.10;62.20
72604;DHT22;60645;56.968;24.196;2022-10-16T15:51:38;20.10;61.90
72604;DHT22;60645;56.968;24.196;2022-10-16T15:54:12;20.10;62.10
72604;DHT22;60645;56.968;24.196;2022-10-16T15:56:49;20.00;62.20
72604;DHT22;60645;56.968;24.196;2022-10-16T15:59:23;20.10;62.10
72604;DHT22;60645;56.968;24.196;2022-10-16T16:01:54;20.10;61.90
72604;DHT22;60645;56.968;24.196;2022-10-16T16:04:31;20.00;61.90
72604;DHT22;60645;56.968;24.196;2022-10-16T16:07:10;20.10;62.10
72604;DHT22;60645;56.968;24.196;2022-10-16T16:09:48;20.10;62.10
72604;DHT22;60645;56.968;24.196;2022-10-16T16:12:17;20.10;62.20
72604;DHT22;60645;56.968;24.196;2022-10-16T16:14:48;20.10;62.10
72604;DHT22;60645;56.968;24.196;2022-10-16T16:17:16;20.00;62.20
72604;DHT22;60645;56.968;24.196;2022-10-16T16:19:52;20.00;62.20
72604;DHT22;60645;56.968;24.196;2022-10-16T16:22:28;20.10;62.10
72604;DHT22;60645;56.968;24.196;2022-10-16T16:25:07;20.00;62.20
72604;DHT22;60645;56.968;24.196;2022-10-16T16:27:42;20.00;62.20
72604;DHT22;60645;56.968;24.196;2022-10-16T16:30:27;20.00;62.20
72604;DHT22;60645;56.968;24.196;2022-10-16T16:33:04;20.00;62.10
72604;DHT22;60645;56.968;24.196;2022-10-16T16:35:39;20.00;62.20
72604;DHT22;60645;56.968;24.196;2022-10-16T16:38:17;20.00;62.10
72604;DHT22;60645;56.968;24.196;2022-10-16T16:41:25;20.00;61.90
72604;DHT22;60645;56.968;24.196;2022-10-16T16:44:05;20.10;62.00
72604;DHT22;60645;56.968;24.196;2022-10-16T16:46:51;20.10;62.00
72604;DHT22;60645;56.968;24.196;2022-10-16T16:49:33;20.00;61.90
72604;DHT22;60645;56.968;24.196;2022-10-16T16:52:14;20.10;62.00
72604;DHT22;60645;56.968;24.196;2022-10-16T16:55:07;20.00;61.80
72604;DHT22;60645;56.968;24.196;2022-10-16T16:57:47;20.10;61.90
72604;DHT22;60645;56.968;24.196;2022-10-16T17:00:20;20.20;61.90
72604;DHT22;60645;56.968;24.196;2022-10-16T17:03:01;20.10;61.70
72604;DHT22;60645;56.968;24.196;2022-10-16T17:05:33;20.10;61.50
72604;DHT22;60645;56.968;24.196;2022-10-16T17:08:13;20.20;61.90
72604;DHT22;60645;56.968;24.196;2022-10-16T17:10:49;20.10;61.70
72604;DHT22;60645;56.968;24.196;2022-10-16T17:16:46;20.20;61.80
72604;DHT22;60645;56.968;24.196;2022-10-16T17:19:36;20.20;61.60
72604;DHT22;60645;56.968;24.196;2022-10-16T17:22:44;20.20;61.80
72604;DHT22;60645;56.968;24.196;2022-10-16T17:25:47;20.20;61.80
72604;DHT22;60645;56.968;24.196;2022-10-16T17:28:34;20.10;62.00
72604;DHT22;60645;56.968;24.196;2022-10-16T17:31:27;20.10;62.00
72604;DHT22;60645;56.968;24.196;2022-10-16T17:34:09;20.00;62.00
72604;DHT22;60645;56.968;24.196;2022-10-16T17:36:44;20.10;61.90
72604;DHT22;60645;56.968;24.196;2022-10-16T17:39:32;20.10;61.90
72604;DHT22;60645;56.968;24.196;2022-10-16T17:42:30;20.20;61.90
72604;DHT22;60645;56.968;24.196;2022-10-16T17:45:26;20.10;61.90
72604;DHT22;60645;56.968;24.196;2022-10-16T17:48:10;20.10;61.90
72604;DHT22;60645;56.968;24.196;2022-10-16T17:50:59;20.00;62.10
72604;DHT22;60645;56.968;24.196;2022-10-16T17:54:20;20.10;62.10
72604;DHT22;60645;56.968;24.196;2022-10-16T17:57:18;20.10;62.00
72604;DHT22;60645;56.968;24.196;2022-10-16T18:00:04;20.10;62.20
72604;DHT22;60645;56.968;24.196;2022-10-16T18:02:35;20.10;62.20
72604;DHT22;60645;56.968;24.196;2022-10-16T18:05:09;20.00;62.10
72604;DHT22;60645;56.968;24.196;2022-10-16T18:08:12;20.10;62.00
72604;DHT22;60645;56.968;24.196;2022-10-16T18:10:59;20.20;62.10
72604;DHT22;60645;56.968;24.196;2022-10-16T18:13:33;20.10;61.80
72604;DHT22;60645;56.968;24.196;2022-10-16T18:16:30;20.10;61.70
72604;DHT22;60645;56.968;24.196;2022-10-16T18:19:25;20.10;62.00
72604;DHT22;60645;56.968;24.196;2022-10-16T18:22:29;20.10;62.10
72604;DHT22;60645;56.968;24.196;2022-10-16T18:25:27;20.10;62.00
72604;DHT22;60645;56.968;24.196;2022-10-16T18:28:24;20.10;62.00
72604;DHT22;60645;56.968;24.196;2022-10-16T18:31:17;20.10;61.80
72604;DHT22;60645;56.968;24.196;2022-10-16T18:34:26;20.20;61.90
72604;DHT22;60645;56.968;24.196;2022-10-16T18:37:33;20.00;62.00
72604;DHT22;60645;56.968;24.196;2022-10-16T18:40:40;20.10;62.00
72604;DHT22;60645;56.968;24.196;2022-10-16T18:43:24;20.10;62.00
72604;DHT22;60645;56.968;24.196;2022-10-16T18:46:15;20.10;62.00
72604;DHT22;60645;56.968;24.196;2022-10-16T18:49:38;20.10;62.20
72604;DHT22;60645;56.968;24.196;2022-10-16T18:52:30;20.00;62.20
72604;DHT22;60645;56.968;24.196;2022-10-16T18:55:20;20.00;62.20
72604;DHT22;60645;56.968;24.196;2022-10-16T18:58:19;20.00;62.10
72604;DHT22;60645;56.968;24.196;2022-10-16T19:01:17;20.10;62.10
72604;DHT22;60645;56.968;24.196;2022-10-16T19:04:24;20.00;62.30
72604;DHT22;60645;56.968;24.196;2022-10-16T19:07:29;20.00;62.20
72604;DHT22;60645;56.968;24.196;2022-10-16T19:10:36;20.10;62.00
72604;DHT22;60645;56.968;24.196;2022-10-16T19:13:23;20.10;62.10
72604;DHT22;60645;56.968;24.196;2022-10-16T19:16:24;20.00;62.40
72604;DHT22;60645;56.968;24.196;2022-10-16T19:19:28;20.10;62.10
72604;DHT22;60645;56.968;24.196;2022-10-16T19:22:33;20.00;62.10
72604;DHT22;60645;56.968;24.196;2022-10-16T19:25:24;20.10;62.10